Airfield :







YOU CAN JOIN US ON...

 
LOGIN :

Register | Disclaimer

   EN    FR    IT 

 









Legend :    VFR   Marginal VFR   IFR   Intensive IFR   Very Intensive IFR
Visi :
Ceiling :
>= 8 km
>= 3000ft
5 to 8 km
1000 to 3000 ft
1500m to 5 km
500 to 1000 ft
800 to 1500m
200 to 500 ft
< 800m
< 200 ft
Symbols :   Thunderstorms  Fog  Heavy snow  Heavy precipitations  Wind > 20 kt






- Airport Elevation : 1005 ft
- IATA code : YAH


CYAH - La Grande-4

CURRENT METAR :
  • 120532Z AUTO 22006KT 7SM BKN037 BKN070 OVC095 M26/M30 A2993 RMK SLP180

EXPIRED METARs :
  • 120527Z AUTO 22005KT 5SM -SN BKN027 BKN070 BKN092 M27/M30 A2993 RMK SLP179
  • 120514Z AUTO 22004KT 5SM -SN BKN019 BKN095 M27/M30 A2993 RMK SLP179
  • 120440Z AUTO 21004KT 5SM -SN OVC041 M26/M30 A2992 RMK SLP177
  • 120437Z AUTO 21005KT 6SM -SN OVC041 M26/M29 A2992 RMK SLP177
  • 120400Z AUTO 20007KT 5SM -SN OVC033 M27/M29 A2992 RMK SLP178
  • 120349Z AUTO 20006KT 5SM -SN OVC031 M27/M30 A2992 RMK SLP178
  • 120347Z AUTO 20006KT 5SM HZ OVC031 M27/M31 A2992 RMK SLP178
  • 120331Z AUTO 19002KT 3SM -SN OVC025 M27/M30 A2992 RMK SLP176
  • 120321Z AUTO 22003KT 2SM -SN OVC023 M26/M29 A2991 RMK SLP174
  • 120300Z AUTO 00000KT 1 3/4SM -SN OVC021 M27/M30 A2991 RMK SLP174
  • 120253Z AUTO 00000KT 1 3/4SM -SN OVC023 M28/M31 A2991 RMK SLP175
  • 120240Z AUTO 00000KT 3SM -SN OVC027 M28/M31 A2991 RMK SLP175

Expired Forecast.



MET'MAP, your aeronautical weather chart ! - Copyright ORBIFLY December 2007 - Disclaimer

ORBIFLY MET'MAP TEAM :

Programming & Development : Alexandra Zaïnal
Concept & original design : Baudouin d'Aumeries
Assistance for programming : Marc-Olivier Méhu
Technical & hardware support : Manuel Goepfert

Contact : metmap@orbifly.com




SOURCES & CREDITS :

   NOAA